Главная страница
METAR-TAF:

METAR-TAF

Аэропорты :

Уфа, Россия

широта: 54-43-48N, долгота: 055-55-48E, высота над уровнем моря: 137 м

Текущие метеонаблюдения

Эта сводка был подготовлена 49 минут назад, в 11:30 UTC
Ветер 6 Узел от южный, изменяющийся между юго-восточный и южный-юго-западный
Температура -7°C
Влажность 67%
Давление 1037 hPa
Видимость 10 км и более
Нет облачности ниже 1500 м, и нет кучево-дождевой облачности

METAR: UWUU 151130Z 17003MPS 130V200 CAVOK M07/M12 Q1037 R14R/0///60 NOSIG RMK QFE767/1023

Время: 17:19 (12:19 UTC)

Прогноз

Эта сводка был подготовлена 1 час и 20 минут назад, в 10:59 UTC
Прогноз действительный с 15-го 12 UTC до 16-го 12 UTC
Ветер 12 Узел от южный
Видимость 10 км и более
Отдельные облака на высоте 3000 фута
временами
С 15-го 15 UTC до 16-го 04 UTC
Ветер 6 Узел от юго-восточный
Видимость: 3100 м
Рассеянная облачность на высоте 1100 фута
дымка

TAF: UWUU 151059Z 1512/1612 17006MPS 9999 SCT030 TEMPO 1515/1604 14003MPS 3100 BR BKN011

Метеонаблюдения и прогнозы для более 4000 аэропортов (сводки METAR и TAF).

Имеющиеся станции представлены на карте желтыми и красными точками.

Чтобы увидеть название станции, наведите на нее мышь.

Затем щелкните, чтобы увидеть метеонаблюдения и метеопрогнозы.

Управление картой: чтобы увеличить масштаб, щелкните зеленые кнопки с черным крестиком; чтобы уменьшить масштаб, щелкните зеленую кнопку с тире; для просмотра соседних карт щелкайте зеленые стрелки.


METAR-TAF: